createdAt,value
2023-03-23T15:58:05.945Z,14.05
2023-03-23T16:00:33.116Z,12.90
2023-03-23T16:03:02.540Z,11.88
2023-03-23T16:05:29.602Z,15.32
2023-03-23T16:07:56.657Z,14.50
2023-03-23T16:10:25.970Z,12.80
2023-03-23T16:12:53.106Z,9.02
2023-03-23T16:15:21.560Z,11.25
2023-03-23T16:17:49.220Z,12.68
2023-03-23T16:20:22.407Z,16.13
2023-03-23T16:22:51.117Z,14.50
2023-03-23T16:25:19.034Z,10.88
2023-03-23T16:27:51.731Z,11.52
2023-03-23T16:30:23.210Z,9.80
2023-03-23T16:32:50.562Z,12.50
2023-03-23T16:35:19.465Z,12.70
2023-03-23T16:38:07.671Z,9.93
2023-03-23T16:40:39.680Z,13.32
2023-03-23T16:43:08.469Z,17.92
2023-03-23T16:45:37.740Z,16.02
2023-03-23T16:48:05.439Z,13.48
2023-03-23T16:50:32.873Z,9.88
2023-03-23T16:53:00.000Z,11.93
2023-03-23T16:55:27.990Z,11.02
2023-03-23T16:58:05.281Z,8.65
2023-03-23T17:00:40.868Z,9.63
2023-03-23T17:03:08.474Z,11.02
2023-03-23T17:05:37.211Z,8.70
2023-03-23T17:08:04.643Z,10.50
2023-03-23T17:10:31.928Z,8.07
2023-03-23T17:12:58.887Z,11.52
2023-03-23T17:15:26.165Z,9.75
2023-03-23T17:17:55.029Z,9.35
2023-03-23T17:20:22.629Z,14.00
2023-03-23T17:22:49.779Z,11.70
2023-03-23T17:25:16.805Z,10.57
2023-03-23T17:27:43.904Z,11.68
2023-03-23T17:30:11.741Z,10.25
2023-03-23T17:32:40.117Z,15.05
2023-03-23T17:35:07.570Z,12.27
2023-03-23T17:37:36.206Z,12.48
2023-03-23T17:40:03.957Z,12.68
2023-03-23T17:42:31.168Z,15.35
2023-03-23T17:44:58.731Z,15.35
2023-03-23T17:47:25.721Z,11.30
2023-03-23T17:49:52.641Z,15.90
2023-03-23T17:52:19.481Z,12.40
2023-03-23T17:54:46.405Z,11.82
2023-03-23T17:57:13.263Z,18.65
2023-03-23T17:59:40.454Z,13.85
2023-03-23T18:02:08.601Z,15.65
2023-03-23T18:04:35.541Z,14.15
2023-03-23T18:07:02.462Z,11.70
2023-03-23T18:09:29.769Z,11.68
2023-03-23T18:11:57.260Z,16.30
2023-03-23T18:14:24.188Z,11.30
2023-03-23T18:16:51.201Z,13.20
2023-03-23T18:19:18.172Z,13.50
2023-03-23T18:21:46.102Z,12.50
2023-03-23T18:24:13.625Z,14.73
2023-03-23T18:26:41.240Z,12.32
2023-03-23T18:29:08.253Z,14.07
2023-03-23T18:31:39.976Z,15.30
2023-03-23T18:34:07.413Z,14.27
2023-03-23T18:36:34.475Z,15.45
2023-03-23T18:39:01.610Z,15.25
2023-03-23T18:41:28.538Z,13.88
2023-03-23T18:43:57.561Z,15.07
2023-03-23T18:46:25.128Z,13.20
2023-03-23T18:48:52.038Z,17.10
2023-03-23T18:51:19.040Z,16.58
2023-03-23T18:53:46.030Z,15.63
2023-03-23T18:56:16.156Z,15.23
2023-03-23T18:58:44.474Z,17.83
2023-03-23T19:01:17.278Z,18.05
2023-03-23T19:03:45.731Z,15.75
2023-03-23T19:06:20.148Z,15.35
2023-03-23T19:08:48.311Z,16.45
2023-03-23T19:11:15.745Z,14.30
2023-03-23T19:13:53.871Z,18.13
2023-03-23T19:16:28.496Z,13.23
2023-03-23T19:18:55.376Z,13.48
2023-03-23T19:21:25.433Z,13.05
2023-03-23T19:23:54.185Z,18.92
2023-03-23T19:26:29.028Z,15.48
2023-03-23T19:31:26.031Z,20.75
2023-03-23T19:33:53.545Z,13.75
2023-03-23T19:36:22.560Z,12.73
2023-03-23T19:38:50.733Z,14.70
2023-03-23T19:41:19.270Z,12.23
2023-03-23T19:43:46.668Z,11.88
2023-03-23T19:46:14.618Z,11.85
2023-03-23T19:48:42.217Z,10.88
2023-03-23T19:51:11.549Z,10.27
2023-03-23T19:53:39.627Z,8.90
2023-03-23T19:56:14.627Z,10.25
2023-03-23T19:58:42.012Z,12.02
2023-03-23T20:01:09.238Z,8.95
2023-03-23T20:03:36.948Z,9.73
2023-03-23T20:06:10.957Z,7.63
2023-03-23T20:08:43.350Z,8.00
2023-03-23T20:11:17.209Z,6.32
2023-03-23T20:13:45.957Z,6.65
2023-03-23T20:16:12.992Z,8.07
2023-03-23T20:18:41.124Z,10.43
2023-03-23T20:21:30.653Z,9.00
2023-03-23T20:23:58.796Z,8.88
2023-03-23T20:26:32.247Z,7.38
2023-03-23T20:29:00.120Z,8.30
2023-03-23T20:31:31.193Z,6.22
2023-03-23T20:34:09.018Z,5.38
2023-03-23T20:36:40.420Z,5.22
2023-03-23T20:39:10.832Z,5.00
2023-03-23T20:41:39.013Z,7.30
2023-03-23T20:44:08.842Z,5.50
2023-03-23T20:46:35.883Z,5.40
2023-03-23T20:49:06.039Z,6.00
2023-03-23T20:51:33.637Z,5.78
2023-03-23T20:54:02.134Z,9.18
2023-03-23T20:56:29.124Z,6.63
2023-03-23T20:58:56.295Z,6.38
2023-03-23T21:01:23.315Z,8.60
2023-03-23T21:03:52.483Z,7.13
2023-03-23T21:06:20.485Z,8.05
2023-03-23T21:08:47.860Z,7.05
2023-03-23T21:11:19.131Z,7.80
2023-03-23T21:13:46.292Z,8.50
2023-03-23T21:16:13.362Z,5.38
2023-03-23T21:18:41.892Z,6.88
2023-03-23T21:21:11.230Z,6.15
2023-03-23T21:23:47.197Z,8.13
2023-03-23T21:26:20.043Z,7.10
2023-03-23T21:28:49.144Z,10.68
2023-03-23T21:31:17.174Z,5.93
2023-03-23T21:33:45.011Z,6.30
2023-03-23T21:36:12.004Z,8.70
2023-03-23T21:38:39.901Z,8.63
2023-03-23T21:41:12.511Z,7.60
2023-03-23T21:43:40.831Z,7.13
